Time;durP1;ratioP1;P1;durP2;ratioP2;P2;SDS_P1;SDS_P2;PMS_P1;PMS_P2;Temp;Humidity;BMP_temperature;BMP_pressure;BME280_temperature;BME280_humidity;BME280_pressure;Samples;Min_cycle;Max_cycle;Signal;HPM_P1;HPM_P2
2023/07/31 00:00:11;;;;;;;0.00;0.00;;;19.20;99.90;;;;;;5043765;28;20036;-67
2023/07/31 00:02:37;;;;;;;0.00;0.00;;;19.20;99.90;;;;;;5049085;28;20049;-67
2023/07/31 00:05:03;;;;;;;0.00;0.00;;;19.20;99.90;;;;;;5048662;28;20060;-67
2023/07/31 00:07:28;;;;;;;0.10;0.10;;;19.10;99.90;;;;;;5043197;28;20025;-67
2023/07/31 00:09:56;;;;;;;0.00;0.00;;;19.10;99.90;;;;;;5048264;28;20024;-67
2023/07/31 00:12:22;;;;;;;0.00;0.00;;;19.10;99.90;;;;;;5040284;28;20431;-67
2023/07/31 00:14:48;;;;;;;0.00;0.00;;;19.10;99.90;;;;;;5045062;28;20051;-67
2023/07/31 00:17:14;;;;;;;0.00;0.00;;;19.10;99.90;;;;;;5050002;28;20372;-67
2023/07/31 00:19:39;;;;;;;0.00;0.00;;;19.10;99.90;;;;;;5045692;28;20047;-67
2023/07/31 00:22:05;;;;;;;0.00;0.00;;;19.10;99.90;;;;;;5044152;28;20105;-67
2023/07/31 00:24:31;;;;;;;0.00;0.00;;;19.10;99.90;;;;;;5028010;28;20619;-67
2023/07/31 00:26:56;;;;;;;0.00;0.00;;;19.10;99.90;;;;;;5048198;28;20032;-67
2023/07/31 00:29:22;;;;;;;0.00;0.00;;;19.10;99.90;;;;;;5041958;28;20108;-67
2023/07/31 00:31:48;;;;;;;0.00;0.00;;;19.00;99.90;;;;;;5028235;28;20037;-67
2023/07/31 00:34:13;;;;;;;0.00;0.00;;;19.00;99.90;;;;;;5042409;28;20062;-67
2023/07/31 00:36:39;;;;;;;0.00;0.00;;;19.00;99.90;;;;;;5042230;28;20039;-67
2023/07/31 00:39:05;;;;;;;0.00;0.00;;;19.00;99.90;;;;;;5035857;28;20095;-67
2023/07/31 00:41:30;;;;;;;0.00;0.00;;;19.00;99.90;;;;;;5041728;28;20036;-67
2023/07/31 00:43:56;;;;;;;0.00;0.00;;;19.00;99.90;;;;;;5025065;28;20031;-67
2023/07/31 00:46:22;;;;;;;0.00;0.00;;;19.00;99.90;;;;;;5041039;28;20025;-67
2023/07/31 00:48:49;;;;;;;0.00;0.00;;;19.00;99.90;;;;;;5032593;28;20613;-67
2023/07/31 00:51:15;;;;;;;0.00;0.00;;;19.00;99.90;;;;;;5040417;28;20044;-66
2023/07/31 00:53:42;;;;;;;0.00;0.00;;;19.00;99.90;;;;;;5042185;28;20028;-67
2023/07/31 00:56:08;;;;;;;0.00;0.00;;;19.00;99.90;;;;;;5031245;28;20047;-67
2023/07/31 00:58:34;;;;;;;0.00;0.00;;;19.00;99.90;;;;;;5040732;28;20108;-67
2023/07/31 01:00:59;;;;;;;0.00;0.00;;;18.80;99.90;;;;;;5047352;28;20120;-67
2023/07/31 01:03:25;;;;;;;0.00;0.00;;;18.70;99.90;;;;;;5041429;28;20071;-67
2023/07/31 01:05:54;;;;;;;0.00;0.00;;;18.70;99.90;;;;;;5049616;28;20044;-67
2023/07/31 01:08:46;;;;;;;0.00;0.00;;;18.70;99.90;;;;;;5039280;28;20013;-67
2023/07/31 01:11:27;;;;;;;0.00;0.00;;;18.70;99.90;;;;;;5048929;28;20472;-67
2023/07/31 01:13:54;;;;;;;0.00;0.00;;;18.70;99.90;;;;;;5046227;28;20024;-67
2023/07/31 01:16:19;;;;;;;0.00;0.00;;;18.80;99.90;;;;;;5047810;28;20021;-67
2023/07/31 01:18:45;;;;;;;0.00;0.00;;;18.80;99.90;;;;;;5050532;28;20025;-67
2023/07/31 01:21:21;;;;;;;0.30;0.30;;;18.80;99.90;;;;;;5047581;28;20028;-67
2023/07/31 01:24:09;;;;;;;0.00;0.00;;;18.80;99.90;;;;;;5047215;28;20109;-67
2023/07/31 01:26:38;;;;;;;0.00;0.00;;;18.80;99.90;;;;;;5049534;28;20671;-67
2023/07/31 01:29:12;;;;;;;0.00;0.00;;;18.70;99.90;;;;;;5046186;28;20036;-67
2023/07/31 01:31:41;;;;;;;0.00;0.00;;;18.60;99.90;;;;;;5042610;28;20036;-67
2023/07/31 01:34:09;;;;;;;0.00;0.00;;;18.50;99.90;;;;;;5044400;28;20032;-67
2023/07/31 01:36:35;;;;;;;0.00;0.00;;;18.50;99.90;;;;;;5046963;28;20037;-67
2023/07/31 01:39:02;;;;;;;0.00;0.00;;;18.50;99.90;;;;;;5052142;28;20378;-67
2023/07/31 01:41:27;;;;;;;;;;;18.50;99.90;;;;;;5042959;28;20041;-67
2023/07/31 01:43:53;;;;;;;0.00;0.00;;;18.60;99.90;;;;;;5048872;28;19928;-67
2023/07/31 01:46:19;;;;;;;0.00;0.00;;;18.60;99.90;;;;;;5047967;28;20017;-66
2023/07/31 01:48:44;;;;;;;0.00;0.00;;;18.70;99.90;;;;;;5049702;28;20130;-67
2023/07/31 01:51:10;;;;;;;0.00;0.00;;;18.70;99.90;;;;;;5035679;28;20017;-66
2023/07/31 01:53:36;;;;;;;0.00;0.00;;;18.60;99.90;;;;;;5045310;28;20044;-66
2023/07/31 01:56:01;;;;;;;0.00;0.00;;;18.70;99.90;;;;;;5044229;28;20036;-66
2023/07/31 01:58:27;;;;;;;0.00;0.00;;;18.60;99.90;;;;;;5046597;28;20031;-67
2023/07/31 02:00:52;;;;;;;0.00;0.00;;;18.70;99.90;;;;;;5042242;28;20073;-67
2023/07/31 02:03:18;;;;;;;0.00;0.00;;;18.60;99.90;;;;;;5035500;28;20035;-67
2023/07/31 02:05:45;;;;;;;0.00;0.00;;;18.50;99.90;;;;;;5035162;28;20032;-66
2023/07/31 02:08:11;;;;;;;0.00;0.00;;;18.40;99.90;;;;;;5041283;28;20609;-67
2023/07/31 02:10:36;;;;;;;0.00;0.00;;;18.20;99.90;;;;;;5046953;28;20120;-67
2023/07/31 02:13:03;;;;;;;0.00;0.00;;;18.20;99.90;;;;;;5045720;28;20033;-66
2023/07/31 02:15:30;;;;;;;0.00;0.00;;;18.10;99.90;;;;;;5049460;28;20097;-67
2023/07/31 02:17:55;;;;;;;0.00;0.00;;;18.10;99.90;;;;;;5046332;28;20034;-67
2023/07/31 02:20:21;;;;;;;0.00;0.00;;;18.10;99.90;;;;;;5050542;28;20017;-67
2023/07/31 02:22:47;;;;;;;0.00;0.00;;;18.10;99.90;;;;;;5041406;28;20094;-67
2023/07/31 02:25:12;;;;;;;0.00;0.00;;;18.10;99.90;;;;;;5030614;28;20025;-67
2023/07/31 02:27:38;;;;;;;0.00;0.00;;;18.20;99.90;;;;;;5025885;28;20039;-67
2023/07/31 02:30:04;;;;;;;0.00;0.00;;;18.20;99.90;;;;;;5029851;28;20040;-67
2023/07/31 02:32:30;;;;;;;0.00;0.00;;;18.10;99.90;;;;;;5048263;28;20487;-66
2023/07/31 02:34:55;;;;;;;0.00;0.00;;;18.20;99.90;;;;;;5048783;28;20037;-67
2023/07/31 02:37:21;;;;;;;0.00;0.00;;;18.20;99.90;;;;;;5044287;28;20035;-67
2023/07/31 02:39:47;;;;;;;0.00;0.00;;;18.20;99.90;;;;;;5026215;28;20017;-67
2023/07/31 02:42:13;;;;;;;0.00;0.00;;;18.20;99.90;;;;;;5034955;28;20387;-67
2023/07/31 02:44:39;;;;;;;;;;;18.20;99.90;;;;;;5039417;28;20392;-67
2023/07/31 02:47:04;;;;;;;0.00;0.00;;;18.20;99.90;;;;;;5044447;28;19912;-67
2023/07/31 02:49:30;;;;;;;0.08;0.08;;;18.20;99.90;;;;;;5041373;28;20020;-66
2023/07/31 02:51:56;;;;;;;0.22;0.10;;;18.20;99.90;;;;;;5033805;28;20108;-67
2023/07/31 02:54:21;;;;;;;0.00;0.00;;;18.20;99.90;;;;;;5043612;28;20029;-66
2023/07/31 02:56:47;;;;;;;0.00;0.00;;;18.20;99.90;;;;;;5047271;28;20097;-67
2023/07/31 02:59:13;;;;;;;0.00;0.00;;;18.20;99.90;;;;;;5054143;28;20025;-67
2023/07/31 03:01:39;;;;;;;0.05;0.05;;;18.20;99.90;;;;;;5046623;28;20029;-67
2023/07/31 03:04:05;;;;;;;0.00;0.00;;;18.30;99.90;;;;;;5034873;28;20127;-67
2023/07/31 03:06:30;;;;;;;0.00;0.00;;;18.40;99.90;;;;;;5048573;28;20479;-67
2023/07/31 03:08:56;;;;;;;0.00;0.00;;;18.30;99.90;;;;;;5043056;28;20437;-67
2023/07/31 03:11:22;;;;;;;0.10;0.10;;;18.30;99.90;;;;;;5037408;28;20051;-67
2023/07/31 03:13:47;;;;;;;0.00;0.00;;;18.20;99.90;;;;;;5044332;28;20041;-67
2023/07/31 03:16:13;;;;;;;0.00;0.00;;;18.20;99.90;;;;;;5047699;28;20113;-67
2023/07/31 03:18:39;;;;;;;0.00;0.00;;;18.20;99.90;;;;;;5042097;28;20024;-67
2023/07/31 03:21:05;;;;;;;0.00;0.00;;;18.20;99.90;;;;;;5039529;28;20056;-67
2023/07/31 03:23:30;;;;;;;0.00;0.00;;;18.10;99.90;;;;;;5040688;28;20044;-67
2023/07/31 03:25:58;;;;;;;0.00;0.00;;;18.20;99.90;;;;;;5040235;28;20553;-67
2023/07/31 03:28:23;;;;;;;0.00;0.00;;;18.20;99.90;;;;;;5029024;28;20403;-67
2023/07/31 03:30:49;;;;;;;0.00;0.00;;;18.20;99.90;;;;;;5028668;28;20040;-67
2023/07/31 03:33:14;;;;;;;0.00;0.00;;;18.20;99.90;;;;;;5044419;28;20580;-67
2023/07/31 03:35:40;;;;;;;0.00;0.00;;;18.20;99.90;;;;;;5039205;28;20029;-67
2023/07/31 03:38:06;;;;;;;0.00;0.00;;;18.20;99.90;;;;;;5050508;28;20067;-67
2023/07/31 03:40:31;;;;;;;0.10;0.10;;;18.20;99.90;;;;;;5047390;28;20510;-67
2023/07/31 03:42:57;;;;;;;0.00;0.00;;;18.30;99.90;;;;;;5049360;28;20052;-67
2023/07/31 03:45:23;;;;;;;0.00;0.00;;;18.30;99.90;;;;;;5032513;28;20059;-67
2023/07/31 03:47:48;;;;;;;0.00;0.00;;;18.30;99.90;;;;;;5047964;28;20028;-67
2023/07/31 03:50:14;;;;;;;0.00;0.00;;;18.40;99.90;;;;;;5051837;28;20108;-67
2023/07/31 03:52:41;;;;;;;0.00;0.00;;;18.40;99.90;;;;;;5040746;28;20031;-67
2023/07/31 03:55:07;;;;;;;0.00;0.00;;;18.50;99.90;;;;;;5044269;28;20056;-67
2023/07/31 03:57:32;;;;;;;0.00;0.00;;;18.60;99.90;;;;;;5042923;28;20446;-67
2023/07/31 03:59:59;;;;;;;0.00;0.00;;;18.60;99.90;;;;;;5040084;28;20036;-67
2023/07/31 04:02:24;;;;;;;0.00;0.00;;;18.70;99.90;;;;;;5046435;28;20017;-67
2023/07/31 04:04:50;;;;;;;0.00;0.00;;;18.90;99.90;;;;;;5048249;28;20047;-67
2023/07/31 04:07:15;;;;;;;0.00;0.00;;;18.90;99.90;;;;;;5037563;28;20021;-67
2023/07/31 04:09:41;;;;;;;0.00;0.00;;;19.00;99.90;;;;;;5033420;28;20086;-67
2023/07/31 04:12:07;;;;;;;0.00;0.00;;;19.10;99.90;;;;;;5046883;28;20751;-67
2023/07/31 04:14:32;;;;;;;0.00;0.00;;;19.20;99.90;;;;;;5049547;28;20040;-67
2023/07/31 04:16:58;;;;;;;0.00;0.00;;;19.30;99.90;;;;;;5043011;28;20031;-67
2023/07/31 04:19:24;;;;;;;0.00;0.00;;;19.40;99.90;;;;;;5048422;28;20036;-68
2023/07/31 04:21:50;;;;;;;0.00;0.00;;;19.50;99.90;;;;;;5043649;28;21013;-67
2023/07/31 04:24:15;;;;;;;0.00;0.00;;;19.50;99.90;;;;;;5050541;28;20107;-67
2023/07/31 04:26:41;;;;;;;0.00;0.00;;;19.60;99.90;;;;;;5047732;28;20051;-67
2023/07/31 04:29:07;;;;;;;0.00;0.00;;;19.70;99.90;;;;;;5047426;28;20125;-67
2023/07/31 04:31:33;;;;;;;0.00;0.00;;;19.70;99.90;;;;;;5048770;28;20047;-67
2023/07/31 04:33:59;;;;;;;0.00;0.00;;;19.80;99.90;;;;;;5044335;28;20040;-67
2023/07/31 04:36:25;;;;;;;0.00;0.00;;;19.80;99.90;;;;;;5029646;28;20383;-67
2023/07/31 04:38:50;;;;;;;0.00;0.00;;;19.80;99.90;;;;;;5038860;28;20064;-67
2023/07/31 04:41:16;;;;;;;0.00;0.00;;;19.90;99.90;;;;;;5042837;28;20025;-67
2023/07/31 04:43:42;;;;;;;0.00;0.00;;;19.90;99.90;;;;;;5036132;28;20028;-68
2023/07/31 04:46:07;;;;;;;0.00;0.00;;;20.00;99.90;;;;;;5049554;28;20094;-67
2023/07/31 04:48:33;;;;;;;0.00;0.00;;;20.10;99.90;;;;;;5047545;28;20115;-67
2023/07/31 04:50:59;;;;;;;0.00;0.00;;;20.10;99.90;;;;;;5046052;28;20033;-67
2023/07/31 04:53:24;;;;;;;0.03;0.00;;;20.20;99.90;;;;;;5034776;28;20048;-67
2023/07/31 04:55:50;;;;;;;0.00;0.00;;;20.30;99.90;;;;;;5034100;28;20058;-67
2023/07/31 04:58:15;;;;;;;0.00;0.00;;;20.40;99.90;;;;;;5032452;28;20021;-68
2023/07/31 05:00:41;;;;;;;0.20;0.20;;;20.50;99.90;;;;;;5043009;28;20039;-68
2023/07/31 05:03:07;;;;;;;0.00;0.00;;;20.60;99.90;;;;;;5044468;28;20033;-68
2023/07/31 05:05:32;;;;;;;0.00;0.00;;;20.70;99.90;;;;;;5028046;28;20036;-68
2023/07/31 05:07:58;;;;;;;0.00;0.00;;;20.80;99.90;;;;;;5045020;28;20045;-67
2023/07/31 05:10:24;;;;;;;0.00;0.00;;;20.90;99.90;;;;;;5045829;28;20031;-69
2023/07/31 05:12:49;;;;;;;0.00;0.00;;;21.10;99.90;;;;;;5040842;28;20032;-69
2023/07/31 05:15:15;;;;;;;0.00;0.00;;;21.20;99.90;;;;;;5024705;28;20035;-69
2023/07/31 05:17:41;;;;;;;0.00;0.00;;;21.40;99.90;;;;;;5029622;28;20028;-69
2023/07/31 05:20:07;;;;;;;0.00;0.00;;;21.50;99.90;;;;;;5042734;28;20095;-70
2023/07/31 05:22:33;;;;;;;0.00;0.00;;;21.60;99.90;;;;;;5043120;28;20113;-69
2023/07/31 05:24:58;;;;;;;0.00;0.00;;;21.60;99.90;;;;;;5033258;28;20498;-69
2023/07/31 05:27:24;;;;;;;0.00;0.00;;;21.50;99.90;;;;;;5042870;28;20106;-69
2023/07/31 05:29:50;;;;;;;0.00;0.00;;;21.40;99.90;;;;;;5043628;28;20506;-69
2023/07/31 05:32:15;;;;;;;0.00;0.00;;;21.30;99.90;;;;;;5045479;28;20035;-69
2023/07/31 05:34:41;;;;;;;0.00;0.00;;;21.40;99.90;;;;;;5037471;28;20023;-69
2023/07/31 05:37:07;;;;;;;0.00;0.00;;;21.60;99.90;;;;;;5028768;28;20033;-69
2023/07/31 05:39:33;;;;;;;0.00;0.00;;;21.70;99.90;;;;;;5032185;28;20021;-69
2023/07/31 05:41:59;;;;;;;0.00;0.00;;;22.00;99.90;;;;;;5029680;28;20037;-69
2023/07/31 05:44:24;;;;;;;0.00;0.00;;;22.20;99.90;;;;;;5042056;28;20082;-70
2023/07/31 05:46:50;;;;;;;0.00;0.00;;;22.50;99.90;;;;;;5039254;28;20021;-68
2023/07/31 05:49:16;;;;;;;0.10;0.10;;;22.70;99.90;;;;;;5051223;28;20013;-70
2023/07/31 05:51:41;;;;;;;0.20;0.17;;;23.00;99.90;;;;;;5039956;28;20108;-71
2023/07/31 05:54:07;;;;;;;0.00;0.00;;;23.30;99.90;;;;;;5033768;28;20087;-71
2023/07/31 05:56:33;;;;;;;0.00;0.00;;;23.60;99.90;;;;;;5048356;28;20032;-70
2023/07/31 05:58:59;;;;;;;0.00;0.00;;;23.70;99.90;;;;;;5051874;28;20032;-72
2023/07/31 06:01:25;;;;;;;0.00;0.00;;;23.70;99.90;;;;;;5048500;28;20021;-79
2023/07/31 06:03:51;;;;;;;0.00;0.00;;;24.10;99.90;;;;;;5051829;28;20113;-76
2023/07/31 06:06:17;;;;;;;0.00;0.00;;;24.40;99.90;;;;;;5027646;28;20365;-76
2023/07/31 06:08:42;;;;;;;0.00;0.00;;;24.40;99.90;;;;;;5054798;28;20024;-76
2023/07/31 06:11:09;;;;;;;0.00;0.00;;;24.40;99.90;;;;;;5027664;28;20791;-76
2023/07/31 06:13:35;;;;;;;0.00;0.00;;;24.10;99.90;;;;;;5044197;28;20711;-76
2023/07/31 06:16:04;;;;;;;0.00;0.00;;;24.30;99.90;;;;;;5034205;28;20135;-76
2023/07/31 06:18:33;;;;;;;0.00;0.00;;;24.50;99.60;;;;;;5046989;28;20020;-76
2023/07/31 06:20:58;;;;;;;0.00;0.00;;;24.80;99.10;;;;;;5028031;28;20025;-76
2023/07/31 06:23:25;;;;;;;0.00;0.00;;;25.10;98.70;;;;;;5045775;28;20498;-77
2023/07/31 06:25:51;;;;;;;0.00;0.00;;;25.30;98.10;;;;;;5053775;28;20542;-77
2023/07/31 06:28:16;;;;;;;;;;;25.50;97.70;;;;;;5031355;28;20035;-76
2023/07/31 06:30:42;;;;;;;0.00;0.00;;;25.70;97.30;;;;;;5050587;28;19904;-76
2023/07/31 06:33:09;;;;;;;;;;;26.40;96.30;;;;;;5040012;28;20378;-78
2023/07/31 06:35:35;;;;;;;0.00;0.00;;;27.10;95.70;;;;;;5042962;28;19916;-79
2023/07/31 06:38:02;;;;;;;0.00;0.00;;;27.50;94.80;;;;;;5037645;28;20078;-78
2023/07/31 06:40:28;;;;;;;0.00;0.00;;;28.00;93.70;;;;;;5051756;28;20017;-77
2023/07/31 06:42:53;;;;;;;0.00;0.00;;;28.80;91.90;;;;;;5047257;28;20582;-77
2023/07/31 06:45:19;;;;;;;0.20;0.20;;;29.80;90.20;;;;;;5037435;28;20502;-77
2023/07/31 06:47:46;;;;;;;0.00;0.00;;;31.00;86.90;;;;;;5048999;28;20329;-77
2023/07/31 06:50:11;;;;;;;0.10;0.00;;;32.00;81.30;;;;;;5055619;28;20032;-77
2023/07/31 06:52:37;;;;;;;0.00;0.00;;;33.00;77.10;;;;;;5034234;28;20037;-78
2023/07/31 06:55:18;;;;;;;0.00;0.00;;;33.70;74.10;;;;;;5025802;28;20180;-77
2023/07/31 06:57:44;;;;;;;0.00;0.00;;;34.80;69.90;;;;;;5044827;28;20025;-77
2023/07/31 07:00:10;;;;;;;0.00;0.00;;;35.80;66.30;;;;;;5025922;28;20073;-72
2023/07/31 07:02:36;;;;;;;0.00;0.00;;;36.20;62.70;;;;;;5049639;28;20752;-72
2023/07/31 07:05:02;;;;;;;0.00;0.00;;;35.30;62.10;;;;;;5039004;28;20041;-71
2023/07/31 07:07:28;;;;;;;0.00;0.00;;;35.50;61.00;;;;;;5042094;28;20040;-72
2023/07/31 07:09:54;;;;;;;0.08;0.00;;;36.20;60.00;;;;;;5045479;28;20025;-72
2023/07/31 07:12:19;;;;;;;0.00;0.00;;;36.90;58.40;;;;;;5045639;28;20655;-72
2023/07/31 07:14:48;;;;;;;0.00;0.00;;;37.70;56.90;;;;;;5041361;28;20063;-72
2023/07/31 07:17:14;;;;;;;0.00;0.00;;;36.80;54.10;;;;;;5037810;28;20503;-72
2023/07/31 07:19:42;;;;;;;0.00;0.00;;;35.30;56.90;;;;;;5036922;28;20067;-72
2023/07/31 07:22:10;;;;;;;0.00;0.00;;;36.30;55.60;;;;;;5041919;28;20029;-72
2023/07/31 07:24:35;;;;;;;0.00;0.00;;;37.30;54.10;;;;;;5046437;28;20047;-72
2023/07/31 07:27:01;;;;;;;0.00;0.00;;;37.80;54.10;;;;;;5042619;28;20021;-72
2023/07/31 07:29:27;;;;;;;0.20;0.15;;;38.10;53.00;;;;;;5047343;28;20099;-72
2023/07/31 07:31:52;;;;;;;0.00;0.00;;;37.80;52.30;;;;;;5047363;28;20033;-72
2023/07/31 07:34:18;;;;;;;0.00;0.00;;;36.70;53.40;;;;;;5041028;28;20590;-73
2023/07/31 07:36:44;;;;;;;0.00;0.00;;;36.40;53.60;;;;;;5027868;28;20547;-71
2023/07/31 07:39:11;;;;;;;0.00;0.00;;;36.50;54.10;;;;;;5043423;28;20021;-72
2023/07/31 07:41:36;;;;;;;0.00;0.00;;;36.50;54.10;;;;;;5040332;28;20013;-72
2023/07/31 07:44:02;;;;;;;0.63;0.10;;;36.60;54.10;;;;;;5027882;28;20374;-72
2023/07/31 07:46:27;;;;;;;0.00;0.00;;;37.10;53.20;;;;;;5029091;28;20567;-72
2023/07/31 07:48:53;;;;;;;0.00;0.00;;;36.80;52.50;;;;;;5043860;28;20063;-72
2023/07/31 07:51:19;;;;;;;0.00;0.00;;;35.50;52.90;;;;;;5035662;28;20021;-72
2023/07/31 07:53:45;;;;;;;0.00;0.00;;;34.80;53.50;;;;;;5041399;28;20066;-72
2023/07/31 07:56:11;;;;;;;0.00;0.00;;;34.10;54.20;;;;;;5048292;28;20086;-72
2023/07/31 07:58:37;;;;;;;0.22;0.10;;;33.40;55.40;;;;;;5041408;28;20029;-72
2023/07/31 08:01:02;;;;;;;0.00;0.00;;;32.80;56.00;;;;;;5042488;28;20025;-71
2023/07/31 08:03:28;;;;;;;0.00;0.00;;;32.60;57.10;;;;;;5045040;28;20025;-73
2023/07/31 08:05:58;;;;;;;0.00;0.00;;;32.60;57.30;;;;;;5047322;28;20061;-72
2023/07/31 08:08:24;;;;;;;0.00;0.00;;;33.80;55.80;;;;;;5038915;28;20483;-72
2023/07/31 08:10:50;;;;;;;0.00;0.00;;;33.70;56.00;;;;;;5047036;28;20033;-72
2023/07/31 08:13:16;;;;;;;0.00;0.00;;;33.50;57.00;;;;;;5051603;28;20020;-73
2023/07/31 08:15:45;;;;;;;0.00;0.00;;;34.50;55.50;;;;;;5018942;28;20545;-72
2023/07/31 08:18:12;;;;;;;0.10;0.00;;;34.80;54.40;;;;;;5054961;28;20052;-73
2023/07/31 08:20:38;;;;;;;0.00;0.00;;;35.80;53.70;;;;;;5038461;28;20550;-73
2023/07/31 08:23:04;;;;;;;0.00;0.00;;;37.10;52.40;;;;;;5042083;28;20135;-73
2023/07/31 08:25:29;;;;;;;0.00;0.00;;;37.80;50.70;;;;;;5029902;28;20459;-73
2023/07/31 08:27:55;;;;;;;0.00;0.00;;;38.50;50.80;;;;;;5042879;28;20101;-73
2023/07/31 08:30:21;;;;;;;0.00;0.00;;;39.90;50.50;;;;;;5022054;28;20355;-73
2023/07/31 08:32:47;;;;;;;0.00;0.00;;;39.90;48.20;;;;;;5025516;28;20029;-73
2023/07/31 08:35:13;;;;;;;0.00;0.00;;;40.20;48.40;;;;;;5040773;28;20655;-73
2023/07/31 08:37:39;;;;;;;0.43;0.00;;;41.30;47.30;;;;;;5044683;28;21377;-81
2023/07/31 08:40:07;;;;;;;0.10;0.10;;;41.80;46.40;;;;;;5048065;28;20059;-81
2023/07/31 08:42:44;;;;;;;0.00;0.00;;;42.00;46.80;;;;;;5031889;28;20028;-83
2023/07/31 08:45:15;;;;;;;0.00;0.00;;;41.60;46.50;;;;;;5046182;28;20052;-82
2023/07/31 08:47:44;;;;;;;0.00;0.00;;;42.00;45.20;;;;;;5036509;28;20378;-80
2023/07/31 08:50:12;;;;;;;0.00;0.00;;;42.00;44.70;;;;;;5045810;28;20039;-75
2023/07/31 08:52:38;;;;;;;0.00;0.00;;;41.40;44.90;;;;;;5052287;28;20049;-75
2023/07/31 08:55:05;;;;;;;0.00;0.00;;;41.20;45.10;;;;;;5024953;28;20146;-77
2023/07/31 08:57:34;;;;;;;0.00;0.00;;;41.70;45.40;;;;;;5030199;28;20259;-76
2023/07/31 09:00:00;;;;;;;0.00;0.00;;;41.90;45.50;;;;;;5043716;28;20493;-76
2023/07/31 09:02:37;;;;;;;0.00;0.00;;;40.90;45.90;;;;;;5030074;28;20017;-82
2023/07/31 09:05:03;;;;;;;0.00;0.00;;;40.30;46.40;;;;;;5029286;28;20583;-84
2023/07/31 09:07:32;;;;;;;0.00;0.00;;;41.00;46.30;;;;;;5043650;28;20083;-84
2023/07/31 09:10:03;;;;;;;0.00;0.00;;;41.60;46.80;;;;;;5033742;28;20028;-84
2023/07/31 09:12:29;;;;;;;0.00;0.00;;;42.10;44.20;;;;;;5031241;28;20024;-85
2023/07/31 09:15:00;;;;;;;0.00;0.00;;;42.00;44.40;;;;;;5033657;28;20564;-83
2023/07/31 09:17:34;;;;;;;0.00;0.00;;;41.10;45.30;;;;;;5041492;28;20131;-83
2023/07/31 09:20:17;;;;;;;0.00;0.00;;;41.80;44.90;;;;;;5035934;28;20075;-84
2023/07/31 09:22:43;;;;;;;0.00;0.00;;;42.60;45.20;;;;;;5042944;28;20017;-84
2023/07/31 09:25:23;;;;;;;0.00;0.00;;;42.80;44.90;;;;;;5042808;28;20386;-83
2023/07/31 09:28:08;;;;;;;0.00;0.00;;;43.20;45.00;;;;;;5048294;28;20071;-83
2023/07/31 09:30:49;;;;;;;0.00;0.00;;;43.70;44.90;;;;;;5024759;28;20043;-83
2023/07/31 09:33:16;;;;;;;0.00;0.00;;;43.80;43.90;;;;;;5048389;28;20467;-82
2023/07/31 09:35:42;;;;;;;0.00;0.00;;;43.50;44.40;;;;;;5032606;28;20087;-83
2023/07/31 09:38:10;;;;;;;0.00;0.00;;;42.50;44.10;;;;;;5028819;28;21709;-83
2023/07/31 09:40:44;;;;;;;0.47;0.40;;;42.00;44.50;;;;;;5036188;28;20045;-84
2023/07/31 09:43:12;;;;;;;0.00;0.00;;;41.70;44.40;;;;;;5044847;28;20056;-83
2023/07/31 09:45:41;;;;;;;0.00;0.00;;;41.40;44.00;;;;;;5044390;28;20029;-83
2023/07/31 09:48:18;;;;;;;0.00;0.00;;;40.50;44.40;;;;;;5037725;28;20528;-83
2023/07/31 09:50:46;;;;;;;0.00;0.00;;;40.50;45.40;;;;;;5056498;28;20335;-82
2023/07/31 09:53:13;;;;;;;0.00;0.00;;;40.60;45.10;;;;;;5046013;28;20021;-83
2023/07/31 09:55:40;;;;;;;0.00;0.00;;;40.60;44.00;;;;;;5057670;28;20017;-83
2023/07/31 09:58:09;;;;;;;0.00;0.00;;;39.70;44.60;;;;;;5037574;28;20075;-82
2023/07/31 10:00:36;;;;;;;0.00;0.00;;;39.60;44.90;;;;;;5029393;28;20036;-82
2023/07/31 10:03:05;;;;;;;0.00;0.00;;;39.90;44.80;;;;;;5052065;28;20025;-82
2023/07/31 10:05:39;;;;;;;0.00;0.00;;;39.90;44.40;;;;;;5032164;28;20428;-82
2023/07/31 10:08:07;;;;;;;0.00;0.00;;;40.00;44.40;;;;;;5029458;28;20044;-82
2023/07/31 10:10:35;;;;;;;0.00;0.00;;;39.90;45.30;;;;;;5046918;28;20115;-83
2023/07/31 10:13:02;;;;;;;0.00;0.00;;;40.00;44.60;;;;;;5033933;28;20028;-81
2023/07/31 10:15:29;;;;;;;0.00;0.00;;;39.50;44.60;;;;;;5049114;28;20060;-83
2023/07/31 10:17:57;;;;;;;0.00;0.00;;;38.60;45.30;;;;;;5044506;28;20739;-83
2023/07/31 10:20:24;;;;;;;0.00;0.00;;;38.30;45.00;;;;;;5027916;28;20028;-84
2023/07/31 10:22:51;;;;;;;0.00;0.00;;;38.50;45.40;;;;;;5038013;28;20020;-82
2023/07/31 10:25:19;;;;;;;0.00;0.00;;;38.20;46.00;;;;;;5034393;28;20028;-82
2023/07/31 10:27:47;;;;;;;0.00;0.00;;;38.70;46.00;;;;;;5034625;28;20032;-81
2023/07/31 10:30:17;;;;;;;0.00;0.00;;;39.70;46.30;;;;;;5051678;28;20682;-82
2023/07/31 10:32:45;;;;;;;0.00;0.00;;;40.30;45.20;;;;;;5054965;28;20032;-83
2023/07/31 10:35:11;;;;;;;0.00;0.00;;;39.90;44.70;;;;;;5037084;28;20447;-81
2023/07/31 10:37:40;;;;;;;0.00;0.00;;;39.40;45.50;;;;;;5049382;28;20039;-83
2023/07/31 10:40:09;;;;;;;0.00;0.00;;;39.90;45.70;;;;;;5027927;28;20021;-84
2023/07/31 10:42:52;;;;;;;0.00;0.00;;;40.70;45.50;;;;;;5046794;28;21442;-84
2023/07/31 10:45:37;;;;;;;0.00;0.00;;;40.40;44.70;;;;;;5035260;28;20029;-83
2023/07/31 10:48:05;;;;;;;0.00;0.00;;;40.40;45.00;;;;;;5029500;28;20032;-84
2023/07/31 10:50:37;;;;;;;0.00;0.00;;;40.40;45.30;;;;;;5026309;28;20030;-82
2023/07/31 10:53:04;;;;;;;0.00;0.00;;;41.20;45.20;;;;;;5031274;28;20031;-81
2023/07/31 10:57:00;;;;;;;0.00;0.00;;;41.50;43.60;;;;;;5094813;27;20417;-77
2023/07/31 10:59:34;;;;;;;0.00;0.00;;;42.10;44.90;;;;;;5079788;28;20081;-74
2023/07/31 11:02:02;;;;;;;0.00;0.00;;;42.40;43.80;;;;;;5076132;28;20162;-73
2023/07/31 11:04:30;;;;;;;0.00;0.00;;;41.50;43.90;;;;;;5079614;28;20487;-74
2023/07/31 11:07:01;;;;;;;0.00;0.00;;;39.30;44.50;;;;;;5074874;28;20044;-73
2023/07/31 11:09:32;;;;;;;0.00;0.00;;;37.00;46.40;;;;;;5073741;28;20130;-74
2023/07/31 11:11:58;;;;;;;0.00;0.00;;;35.20;47.00;;;;;;5081268;28;20020;-74
2023/07/31 11:14:24;;;;;;;0.00;0.00;;;33.80;48.60;;;;;;5080274;28;20589;-74
2023/07/31 11:16:51;;;;;;;0.00;0.00;;;32.90;49.10;;;;;;5073789;28;20048;-75
2023/07/31 11:19:26;;;;;;;0.00;0.00;;;32.00;50.40;;;;;;5076494;28;20501;-78
2023/07/31 11:21:53;;;;;;;0.00;0.00;;;32.10;50.70;;;;;;5075748;28;20558;-74
2023/07/31 11:24:19;;;;;;;0.00;0.00;;;31.10;51.00;;;;;;5077467;28;20134;-73
2023/07/31 11:26:51;;;;;;;0.00;0.00;;;31.20;51.50;;;;;;5067216;28;20122;-78
2023/07/31 11:29:18;;;;;;;0.00;0.00;;;31.50;51.80;;;;;;5082687;28;20378;-76
2023/07/31 11:31:45;;;;;;;0.00;0.00;;;31.60;52.20;;;;;;5077557;28;20044;-77
2023/07/31 11:34:11;;;;;;;0.00;0.00;;;31.70;51.60;;;;;;5076011;28;20025;-77
2023/07/31 11:36:37;;;;;;;0.00;0.00;;;31.70;51.80;;;;;;5061353;28;20509;-62
2023/07/31 11:39:08;;;;;;;0.00;0.00;;;31.60;51.40;;;;;;5053655;28;20017;-80
2023/07/31 11:41:34;;;;;;;0.00;0.00;;;31.30;51.20;;;;;;5062434;28;20178;-80
2023/07/31 11:44:01;;;;;;;0.30;0.15;;;31.10;51.50;;;;;;5060873;28;20100;-82
2023/07/31 11:46:30;;;;;;;0.00;0.00;;;30.60;51.00;;;;;;5055231;28;20028;-86
2023/07/31 11:49:00;;;;;;;0.00;0.00;;;30.50;52.60;;;;;;5058470;28;20040;-82
2023/07/31 11:51:26;;;;;;;0.00;0.00;;;30.30;52.60;;;;;;5046279;28;20033;-78
2023/07/31 11:53:57;;;;;;;0.00;0.00;;;30.00;53.20;;;;;;5073749;28;20447;-79
2023/07/31 11:56:25;;;;;;;0.00;0.00;;;30.20;52.00;;;;;;5064075;28;20040;-79
2023/07/31 11:58:55;;;;;;;0.00;0.00;;;30.10;50.90;;;;;;5057798;28;20384;-77
2023/07/31 12:01:22;;;;;;;0.00;0.00;;;30.20;51.20;;;;;;5060980;28;20450;-80
2023/07/31 12:03:49;;;;;;;0.00;0.00;;;30.00;51.90;;;;;;5053770;28;20428;-78
2023/07/31 12:06:16;;;;;;;0.00;0.00;;;29.90;52.90;;;;;;5078119;28;20032;-80
2023/07/31 12:08:41;;;;;;;0.75;0.10;;;30.10;52.80;;;;;;5050896;28;20505;-78
2023/07/31 12:11:09;;;;;;;0.00;0.00;;;30.20;52.90;;;;;;5051213;28;20025;-79
2023/07/31 12:13:36;;;;;;;0.00;0.00;;;30.20;53.00;;;;;;5041716;28;20036;-78
2023/07/31 12:16:03;;;;;;;0.00;0.00;;;30.20;53.10;;;;;;5046282;28;20120;-77
2023/07/31 12:18:34;;;;;;;0.00;0.00;;;30.30;53.90;;;;;;5045021;28;20016;-68
2023/07/31 12:21:02;;;;;;;0.00;0.00;;;30.40;52.60;;;;;;5040269;28;20024;-73
2023/07/31 12:23:32;;;;;;;0.00;0.00;;;30.20;53.50;;;;;;5038114;28;20392;-71
2023/07/31 12:26:09;;;;;;;0.00;0.00;;;30.00;54.00;;;;;;5039226;28;20514;-69
2023/07/31 12:28:37;;;;;;;0.00;0.00;;;30.20;53.90;;;;;;5041335;28;20028;-71
2023/07/31 12:31:04;;;;;;;0.00;0.00;;;30.30;53.80;;;;;;5037723;28;20389;-70
2023/07/31 12:33:34;;;;;;;0.00;0.00;;;30.00;54.00;;;;;;5040590;28;20056;-71
2023/07/31 12:36:06;;;;;;;0.00;0.00;;;29.60;55.00;;;;;;5036535;28;20031;-70
2023/07/31 12:38:32;;;;;;;0.00;0.00;;;29.70;55.00;;;;;;5052754;28;20021;-71
2023/07/31 12:40:58;;;;;;;0.00;0.00;;;29.80;55.40;;;;;;5054670;28;20465;-70
2023/07/31 12:43:23;;;;;;;0.00;0.00;;;29.90;54.30;;;;;;5036843;28;20444;-70
2023/07/31 12:45:49;;;;;;;0.00;0.00;;;29.90;54.10;;;;;;5037235;28;20036;-71
2023/07/31 12:48:15;;;;;;;0.00;0.00;;;29.90;52.90;;;;;;5033040;28;20487;-71